createdAt,value
2022-12-04T00:03:21.747Z,40.89
2022-12-04T00:08:20.949Z,42.69
2022-12-04T00:13:20.182Z,42.36
2022-12-04T00:18:18.499Z,41.95
2022-12-04T00:23:19.694Z,42.03
2022-12-04T00:28:18.901Z,41.85
2022-12-04T00:33:16.114Z,41.42
2022-12-04T00:38:17.341Z,41.32
2022-12-04T00:43:15.620Z,41.93
2022-12-04T00:48:14.853Z,40.24
2022-12-04T00:53:14.129Z,41.20
2022-12-04T00:58:12.681Z,41.18
2022-12-04T01:03:11.643Z,40.63
2022-12-04T01:08:13.776Z,41.71
2022-12-04T01:13:11.048Z,42.22
2022-12-04T01:18:10.335Z,43.16
2022-12-04T01:23:09.525Z,42.67
2022-12-04T01:28:08.793Z,43.84
2022-12-04T01:33:07.997Z,30.08
2022-12-04T01:38:09.303Z,21.45
2022-12-04T01:43:06.608Z,21.56
2022-12-04T01:48:06.894Z,22.50
2022-12-04T01:53:06.194Z,23.13
2022-12-04T01:58:05.470Z,23.55
2022-12-04T02:03:03.805Z,21.96
2022-12-04T02:08:02.951Z,22.60
2022-12-04T02:13:03.218Z,23.84
2022-12-04T02:18:01.507Z,24.47
2022-12-04T02:23:00.795Z,25.41
2022-12-04T02:28:01.102Z,26.23
2022-12-04T02:33:00.417Z,26.87
2022-12-04T02:37:58.567Z,27.29
2022-12-04T02:42:57.707Z,27.61
2022-12-04T02:47:57.038Z,28.55
2022-12-04T02:52:58.361Z,29.07
2022-12-04T02:57:56.675Z,29.69
2022-12-04T03:02:55.066Z,30.11
2022-12-04T03:07:54.279Z,30.73
2022-12-04T03:12:53.414Z,31.04
2022-12-04T03:17:52.735Z,31.56
2022-12-04T03:22:53.042Z,31.56
2022-12-04T03:27:51.365Z,32.30
2022-12-04T03:32:51.714Z,32.52
2022-12-04T03:37:50.834Z,32.93
2022-12-04T03:42:50.166Z,33.24
2022-12-04T03:47:48.303Z,33.66
2022-12-04T03:52:46.602Z,33.58
2022-12-04T03:57:47.931Z,33.88
2022-12-04T04:02:47.259Z,32.92
2022-12-04T04:07:45.402Z,31.46
2022-12-04T04:12:44.680Z,31.26
2022-12-04T04:17:43.983Z,30.52
2022-12-04T04:22:43.295Z,30.21
2022-12-04T04:27:42.600Z,30.32
2022-12-04T04:32:42.891Z,30.44
2022-12-04T04:37:41.203Z,30.84
2022-12-04T04:42:40.528Z,30.94
2022-12-04T04:47:39.837Z,31.06
2022-12-04T04:52:40.154Z,31.26
2022-12-04T04:57:38.463Z,31.88
2022-12-04T05:02:38.813Z,32.20
2022-12-04T05:07:36.975Z,32.32
2022-12-04T05:12:37.073Z,32.73
2022-12-04T05:17:36.355Z,33.26
2022-12-04T05:22:34.656Z,33.69
2022-12-04T05:27:33.923Z,33.58
2022-12-04T05:32:34.202Z,32.52
2022-12-04T05:37:32.520Z,29.25
2022-12-04T05:42:31.810Z,28.55
2022-12-04T05:47:31.100Z,29.07
2022-12-04T05:52:31.413Z,29.27
2022-12-04T05:57:30.145Z,29.27
2022-12-04T06:02:29.013Z,29.49
2022-12-04T06:07:27.222Z,29.71
2022-12-04T06:12:27.331Z,30.22
2022-12-04T06:17:26.660Z,30.74
2022-12-04T06:22:26.970Z,31.06
2022-12-04T06:27:28.023Z,31.38
2022-12-04T06:32:25.478Z,31.91
2022-12-04T06:37:22.796Z,32.32
2022-12-04T06:42:24.105Z,32.64
2022-12-04T06:47:23.389Z,33.05
2022-12-04T06:52:21.670Z,33.27
2022-12-04T06:57:20.978Z,33.58
2022-12-04T07:02:21.426Z,31.96
2022-12-04T07:07:19.544Z,25.49
2022-12-04T07:12:19.671Z,23.43
2022-12-04T07:17:19.045Z,24.26
2022-12-04T07:22:18.145Z,25.10
2022-12-04T07:27:17.445Z,25.63
2022-12-04T07:32:16.820Z,26.77
2022-12-04T07:37:14.932Z,27.93
2022-12-04T07:42:13.242Z,28.56
2022-12-04T07:47:13.553Z,29.39
2022-12-04T07:52:12.861Z,29.91
2022-12-04T07:57:12.138Z,30.32
2022-12-04T08:02:12.453Z,30.94
2022-12-04T08:07:10.760Z,31.48
2022-12-04T08:12:10.063Z,32.11
2022-12-04T08:17:10.430Z,32.64
2022-12-04T08:22:09.567Z,33.26
2022-12-04T08:27:08.869Z,33.58
2022-12-04T08:32:08.167Z,34.00
2022-12-04T08:37:06.474Z,34.11
2022-12-04T08:42:05.353Z,33.67
2022-12-04T08:47:06.856Z,33.15
2022-12-04T08:52:04.173Z,34.13
2022-12-04T08:57:20.512Z,26.21
2022-12-04T09:02:04.720Z,21.64
2022-12-04T09:07:03.278Z,20.51
2022-12-04T09:12:01.077Z,19.48
2022-12-04T09:17:01.684Z,18.46
2022-12-04T09:22:00.955Z,18.26
2022-12-04T09:26:58.973Z,18.26
2022-12-04T09:32:00.352Z,18.35
2022-12-04T09:36:59.637Z,18.87
2022-12-04T09:41:57.891Z,18.04
2022-12-04T09:46:57.170Z,17.94
2022-12-04T09:51:56.222Z,17.73
2022-12-04T09:56:54.427Z,18.35
2022-12-04T10:01:53.676Z,19.49
2022-12-04T10:06:53.940Z,22.07
2022-12-04T10:11:52.840Z,22.47
2022-12-04T10:16:52.329Z,22.45
2022-12-04T10:21:50.766Z,22.66
2022-12-04T10:26:49.747Z,24.43
2022-12-04T10:31:48.884Z,24.02
2022-12-04T10:36:49.021Z,25.67
2022-12-04T10:41:49.578Z,23.90
2022-12-04T10:46:46.989Z,20.90
2022-12-04T10:51:45.743Z,21.92
2022-12-04T10:56:46.030Z,18.44
2022-12-04T11:01:45.369Z,18.33
2022-12-04T11:06:43.522Z,17.60
2022-12-04T11:11:44.855Z,17.30
2022-12-04T11:16:42.228Z,16.90
2022-12-04T11:21:42.424Z,17.10
2022-12-04T11:26:40.883Z,17.82
2022-12-04T11:31:40.269Z,17.93
2022-12-04T11:36:42.097Z,17.61
2022-12-04T11:41:40.745Z,17.30
2022-12-04T11:46:38.123Z,17.30
2022-12-04T11:51:37.286Z,18.34
2022-12-04T11:56:36.112Z,18.23
2022-12-04T12:01:35.339Z,16.78
2022-12-04T12:06:35.766Z,17.30
2022-12-04T12:11:33.737Z,17.50
2022-12-04T12:16:33.986Z,17.40
2022-12-04T12:21:33.484Z,17.71
2022-12-04T12:26:31.608Z,17.60
2022-12-04T12:31:31.870Z,17.29
2022-12-04T12:36:30.098Z,16.98
2022-12-04T12:41:29.628Z,16.78
2022-12-04T12:46:34.831Z,16.99
2022-12-04T12:51:30.487Z,16.98
2022-12-04T12:56:26.908Z,16.88
2022-12-04T13:01:26.147Z,16.68
2022-12-04T13:06:28.331Z,16.57
2022-12-04T13:11:24.490Z,16.27
2022-12-04T13:16:24.777Z,16.27
2022-12-04T13:21:24.950Z,16.37
2022-12-04T13:26:23.113Z,16.88
2022-12-04T13:31:21.313Z,17.19
2022-12-04T13:36:20.513Z,17.79
2022-12-04T13:41:19.680Z,19.43
2022-12-04T13:46:19.911Z,20.67
2022-12-04T13:51:18.146Z,21.39
2022-12-04T13:56:18.295Z,20.25
2022-12-04T14:01:16.690Z,19.72
2022-12-04T14:06:15.968Z,21.27
2022-12-04T14:11:16.860Z,21.15
2022-12-04T14:16:14.535Z,21.37
2022-12-04T14:21:13.909Z,22.19
2022-12-04T14:26:13.905Z,23.25
2022-12-04T14:31:12.473Z,23.75
2022-12-04T14:36:11.362Z,22.70
2022-12-04T14:41:10.697Z,20.94
2022-12-04T14:46:11.015Z,22.29
2022-12-04T14:51:07.932Z,22.73
2022-12-04T14:56:09.043Z,25.01
2022-12-04T15:01:07.627Z,24.58
2022-12-04T15:06:10.656Z,23.98
2022-12-04T15:11:07.050Z,25.95
2022-12-04T15:16:15.641Z,26.25
2022-12-04T15:21:04.440Z,27.07
2022-12-04T15:26:06.635Z,27.71
2022-12-04T15:31:03.797Z,27.91
2022-12-04T15:36:06.220Z,28.12
2022-12-04T15:41:03.614Z,28.12
2022-12-04T15:46:00.406Z,27.81
2022-12-04T15:50:58.655Z,28.12
2022-12-04T15:55:59.567Z,26.77
2022-12-04T16:00:58.109Z,26.77
2022-12-04T16:05:57.315Z,26.56
2022-12-04T16:10:56.237Z,26.70
2022-12-04T16:15:55.868Z,35.88
2022-12-04T16:20:56.836Z,37.13
2022-12-04T16:25:54.404Z,36.19
2022-12-04T16:30:52.674Z,37.13
2022-12-04T16:35:52.893Z,37.01
2022-12-04T16:40:52.090Z,39.01
2022-12-04T16:45:53.051Z,39.98
2022-12-04T16:50:52.555Z,37.43
2022-12-04T16:55:50.787Z,37.86
2022-12-04T17:00:49.015Z,37.01
2022-12-04T17:05:48.901Z,36.71
2022-12-04T17:10:47.494Z,37.65
2022-12-04T17:15:47.496Z,38.08
2022-12-04T17:20:46.924Z,37.84
2022-12-04T17:25:45.136Z,38.91
2022-12-04T17:30:44.323Z,40.93
2022-12-04T17:35:47.326Z,41.60
2022-12-04T17:40:43.717Z,38.18
2022-12-04T17:45:41.854Z,38.82
2022-12-04T17:50:41.886Z,40.06
2022-12-04T17:55:41.179Z,38.79
2022-12-04T18:00:39.081Z,41.46
2022-12-04T18:05:39.266Z,40.04
2022-12-04T18:10:37.720Z,40.22
2022-12-04T18:15:37.134Z,28.63
2022-12-04T18:20:37.264Z,24.84
2022-12-04T18:25:37.593Z,28.18
2022-12-04T18:30:36.740Z,28.68
2022-12-04T18:35:33.590Z,29.21
2022-12-04T18:40:33.116Z,30.68
2022-12-04T18:45:33.333Z,31.51
2022-12-04T18:50:31.575Z,28.24
2022-12-04T18:55:31.526Z,29.94
2022-12-04T19:00:29.982Z,30.45
2022-12-04T19:05:31.291Z,29.82
2022-12-04T19:10:28.717Z,30.02
2022-12-04T19:15:27.879Z,30.45
2022-12-04T19:20:28.124Z,30.34
2022-12-04T19:25:26.348Z,30.76
2022-12-04T19:30:25.447Z,31.70
2022-12-04T19:35:26.399Z,31.79
2022-12-04T19:40:24.069Z,28.39
2022-12-04T19:45:24.077Z,32.78
2022-12-04T19:50:22.517Z,34.24
2022-12-04T19:55:21.691Z,35.17
2022-12-04T20:00:21.473Z,35.48
2022-12-04T20:05:20.224Z,35.68
2022-12-04T20:10:23.979Z,33.08
2022-12-04T20:15:20.316Z,36.49
2022-12-04T20:20:22.007Z,35.61
2022-12-04T20:25:16.743Z,36.74
2022-12-04T20:30:16.413Z,37.06
2022-12-04T20:35:15.495Z,37.66
2022-12-04T20:40:15.713Z,37.99
2022-12-04T20:45:14.688Z,37.37
2022-12-04T20:50:14.161Z,37.24
2022-12-04T20:55:12.335Z,36.52
2022-12-04T21:00:12.447Z,36.07
2022-12-04T21:05:11.511Z,36.76
2022-12-04T21:10:10.043Z,37.28
2022-12-04T21:15:09.845Z,36.84
2022-12-04T21:20:08.008Z,37.89
2022-12-04T21:25:07.368Z,37.57
2022-12-04T21:30:06.587Z,37.57
2022-12-04T21:35:06.761Z,37.57
2022-12-04T21:40:05.952Z,37.66
2022-12-04T21:45:04.208Z,37.66
2022-12-04T21:50:03.462Z,38.07
2022-12-04T21:55:02.638Z,36.34
2022-12-04T22:00:01.845Z,36.29
2022-12-04T22:05:02.030Z,35.99
2022-12-04T22:10:04.136Z,35.60
2022-12-04T22:15:00.564Z,35.78
2022-12-04T22:19:59.807Z,34.11
2022-12-04T22:25:00.372Z,33.91
2022-12-04T22:29:57.310Z,34.44
2022-12-04T22:34:56.492Z,34.67
2022-12-04T22:39:55.997Z,36.12
2022-12-04T22:44:55.085Z,36.04
2022-12-04T22:49:54.550Z,37.26
2022-12-04T22:54:53.631Z,37.90
2022-12-04T22:59:52.647Z,39.28
2022-12-04T23:04:51.909Z,37.84
2022-12-04T23:09:52.133Z,37.92
2022-12-04T23:14:50.309Z,38.67
2022-12-04T23:19:49.513Z,38.59
2022-12-04T23:24:49.681Z,39.07
2022-12-04T23:29:54.958Z,38.28
2022-12-04T23:34:48.117Z,36.68
2022-12-04T23:39:46.325Z,36.77
2022-12-04T23:44:44.503Z,35.85
2022-12-04T23:49:44.707Z,37.62
2022-12-04T23:54:44.894Z,37.08
2022-12-04T23:59:43.113Z,38.79
